sensor_id;sensor_type;location;lat;lon;timestamp;pressure;altitude;pressure_sealevel;temperature;humidity
55044;BME280;54902;50.420;18.854;2023-07-31T00:00:12;100923.47;;;19.29;66.80
55044;BME280;54902;50.420;18.854;2023-07-31T00:00:43;100934.55;;;19.29;66.83
55044;BME280;54902;50.420;18.854;2023-07-31T00:01:14;100932.80;;;19.28;66.85
55044;BME280;54902;50.420;18.854;2023-07-31T00:01:44;100931.97;;;19.28;66.86
55044;BME280;54902;50.420;18.854;2023-07-31T00:02:15;100935.77;;;19.27;66.86
55044;BME280;54902;50.420;18.854;2023-07-31T00:02:46;100936.81;;;19.26;66.86
55044;BME280;54902;50.420;18.854;2023-07-31T00:03:17;100937.88;;;19.25;66.86
55044;BME280;54902;50.420;18.854;2023-07-31T00:03:49;100938.73;;;19.26;66.91
55044;BME280;54902;50.420;18.854;2023-07-31T00:04:20;100940.80;;;19.24;66.96
55044;BME280;54902;50.420;18.854;2023-07-31T00:04:51;100930.09;;;19.21;67.03
55044;BME280;54902;50.420;18.854;2023-07-31T00:05:22;100934.41;;;19.23;66.96
55044;BME280;54902;50.420;18.854;2023-07-31T00:05:53;100938.21;;;19.22;67.00
55044;BME280;54902;50.420;18.854;2023-07-31T00:06:23;100938.21;;;19.22;66.98
55044;BME280;54902;50.420;18.854;2023-07-31T00:06:54;100935.63;;;19.21;67.00
55044;BME280;54902;50.420;18.854;2023-07-31T00:07:25;100932.00;;;19.20;67.04
55044;BME280;54902;50.420;18.854;2023-07-31T00:07:56;100934.95;;;19.19;67.00
55044;BME280;54902;50.420;18.854;2023-07-31T00:08:27;100937.73;;;19.19;67.00
55044;BME280;54902;50.420;18.854;2023-07-31T00:08:58;100939.62;;;19.18;67.03
55044;BME280;54902;50.420;18.854;2023-07-31T00:09:29;100937.91;;;19.17;67.09
55044;BME280;54902;50.420;18.854;2023-07-31T00:10:00;100940.68;;;19.17;67.07
55044;BME280;54902;50.420;18.854;2023-07-31T00:10:31;100943.60;;;19.16;67.10
55044;BME280;54902;50.420;18.854;2023-07-31T00:11:02;100932.52;;;19.16;67.08
55044;BME280;54902;50.420;18.854;2023-07-31T00:11:32;100944.68;;;19.15;67.09
55044;BME280;54902;50.420;18.854;2023-07-31T00:12:04;100941.02;;;19.14;67.07
55044;BME280;54902;50.420;18.854;2023-07-31T00:12:35;100942.94;;;19.14;67.07
55044;BME280;54902;50.420;18.854;2023-07-31T00:13:06;100945.71;;;19.14;67.09
55044;BME280;54902;50.420;18.854;2023-07-31T00:13:37;100943.98;;;19.13;67.13
55044;BME280;54902;50.420;18.854;2023-07-31T00:14:08;100936.70;;;19.12;67.17
55044;BME280;54902;50.420;18.854;2023-07-31T00:14:39;100935.84;;;19.11;67.17
55044;BME280;54902;50.420;18.854;2023-07-31T00:15:10;100938.80;;;19.10;67.20
55044;BME280;54902;50.420;18.854;2023-07-31T00:15:41;100939.65;;;19.10;67.29
55044;BME280;54902;50.420;18.854;2023-07-31T00:16:12;100930.12;;;19.05;67.39
55044;BME280;54902;50.420;18.854;2023-07-31T00:16:43;100943.45;;;19.09;67.33
55044;BME280;54902;50.420;18.854;2023-07-31T00:17:14;100936.21;;;19.08;67.32
55044;BME280;54902;50.420;18.854;2023-07-31T00:17:45;100940.86;;;19.08;67.32
55044;BME280;54902;50.420;18.854;2023-07-31T00:18:17;100940.86;;;19.08;67.29
55044;BME280;54902;50.420;18.854;2023-07-31T00:18:48;100936.39;;;19.07;67.39
55044;BME280;54902;50.420;18.854;2023-07-31T00:19:18;100942.98;;;19.06;67.42
55044;BME280;54902;50.420;18.854;2023-07-31T00:19:49;100935.66;;;19.05;67.40
55044;BME280;54902;50.420;18.854;2023-07-31T00:20:21;100932.19;;;19.03;67.45
55044;BME280;54902;50.420;18.854;2023-07-31T00:20:52;100936.70;;;19.04;67.40
55044;BME280;54902;50.420;18.854;2023-07-31T00:21:23;100936.02;;;19.02;67.42
55044;BME280;54902;50.420;18.854;2023-07-31T00:21:54;100935.14;;;19.01;67.41
55044;BME280;54902;50.420;18.854;2023-07-31T00:22:24;100939.83;;;19.01;67.46
55044;BME280;54902;50.420;18.854;2023-07-31T00:22:55;100938.98;;;19.00;67.53
55044;BME280;54902;50.420;18.854;2023-07-31T00:23:26;100943.63;;;19.00;67.53
55044;BME280;54902;50.420;18.854;2023-07-31T00:23:57;100949.17;;;19.00;67.52
55044;BME280;54902;50.420;18.854;2023-07-31T00:24:28;100939.31;;;18.97;67.56
55044;BME280;54902;50.420;18.854;2023-07-31T00:24:59;100945.91;;;18.96;67.59
55044;BME280;54902;50.420;18.854;2023-07-31T00:25:30;100940.38;;;18.96;67.55
55044;BME280;54902;50.420;18.854;2023-07-31T00:26:01;100947.80;;;18.96;67.55
55044;BME280;54902;50.420;18.854;2023-07-31T00:26:32;100940.53;;;18.95;67.57
55044;BME280;54902;50.420;18.854;2023-07-31T00:27:03;100937.94;;;18.93;67.51
55044;BME280;54902;50.420;18.854;2023-07-31T00:27:34;100944.36;;;18.94;67.50
55044;BME280;54902;50.420;18.854;2023-07-31T00:28:05;100936.23;;;18.92;67.52
55044;BME280;54902;50.420;18.854;2023-07-31T00:28:36;100934.50;;;18.91;67.61
55044;BME280;54902;50.420;18.854;2023-07-31T00:29:07;100939.15;;;18.91;67.61
55044;BME280;54902;50.420;18.854;2023-07-31T00:29:38;100937.46;;;18.90;67.57
55044;BME280;54902;50.420;18.854;2023-07-31T00:30:09;100936.56;;;18.89;67.60
55044;BME280;54902;50.420;18.854;2023-07-31T00:30:40;100934.68;;;18.90;67.56
55044;BME280;54902;50.420;18.854;2023-07-31T00:31:11;100943.14;;;18.88;67.61
55044;BME280;54902;50.420;18.854;2023-07-31T00:31:42;100941.45;;;18.87;67.61
55044;BME280;54902;50.420;18.854;2023-07-31T00:32:13;100939.70;;;18.86;67.66
55044;BME280;54902;50.420;18.854;2023-07-31T00:32:44;100947.16;;;18.86;67.63
55044;BME280;54902;50.420;18.854;2023-07-31T00:33:15;100944.39;;;18.86;67.61
55044;BME280;54902;50.420;18.854;2023-07-31T00:33:45;100945.42;;;18.85;67.64
55044;BME280;54902;50.420;18.854;2023-07-31T00:34:16;100946.46;;;18.84;67.63
55044;BME280;54902;50.420;18.854;2023-07-31T00:34:47;100945.61;;;18.83;67.66
55044;BME280;54902;50.420;18.854;2023-07-31T00:35:18;100954.77;;;18.84;67.75
55044;BME280;54902;50.420;18.854;2023-07-31T00:35:49;100946.64;;;18.82;67.73
55044;BME280;54902;50.420;18.854;2023-07-31T00:36:20;100949.59;;;18.81;67.68
55044;BME280;54902;50.420;18.854;2023-07-31T00:36:51;100954.24;;;18.80;67.67
55044;BME280;54902;50.420;18.854;2023-07-31T00:37:22;100950.63;;;18.80;67.66
55044;BME280;54902;50.420;18.854;2023-07-31T00:37:52;100956.16;;;18.80;67.68
55044;BME280;54902;50.420;18.854;2023-07-31T00:38:23;100951.66;;;18.79;67.67
55044;BME280;54902;50.420;18.854;2023-07-31T00:38:54;100956.34;;;18.78;67.74
55044;BME280;54902;50.420;18.854;2023-07-31T00:39:25;100949.91;;;18.78;67.78
55044;BME280;54902;50.420;18.854;2023-07-31T00:39:56;100952.86;;;18.76;67.75
55044;BME280;54902;50.420;18.854;2023-07-31T00:40:27;100944.56;;;18.76;67.75
55044;BME280;54902;50.420;18.854;2023-07-31T00:40:58;100954.78;;;18.76;67.97
55044;BME280;54902;50.420;18.854;2023-07-31T00:41:29;100961.34;;;18.75;67.94
55044;BME280;54902;50.420;18.854;2023-07-31T00:42:00;100955.82;;;18.75;67.99
55044;BME280;54902;50.420;18.854;2023-07-31T00:42:31;100963.27;;;18.74;67.99
55044;BME280;54902;50.420;18.854;2023-07-31T00:43:02;100961.54;;;18.73;67.96
55044;BME280;54902;50.420;18.854;2023-07-31T00:43:34;100963.45;;;18.73;68.02
55044;BME280;54902;50.420;18.854;2023-07-31T00:44:05;100963.45;;;18.73;68.00
55044;BME280;54902;50.420;18.854;2023-07-31T00:44:36;100961.72;;;18.72;68.03
55044;BME280;54902;50.420;18.854;2023-07-31T00:45:07;100962.74;;;18.71;68.00
55044;BME280;54902;50.420;18.854;2023-07-31T00:45:38;100964.66;;;18.70;68.09
55044;BME280;54902;50.420;18.854;2023-07-31T00:46:09;100962.07;;;18.69;68.12
55044;BME280;54902;50.420;18.854;2023-07-31T00:46:40;100961.19;;;18.68;68.29
55044;BME280;54902;50.420;18.854;2023-07-31T00:47:11;100955.65;;;18.68;68.28
55044;BME280;54902;50.420;18.854;2023-07-31T00:47:42;100958.61;;;18.67;68.31
55044;BME280;54902;50.420;18.854;2023-07-31T00:48:13;100956.87;;;18.66;68.36
55044;BME280;54902;50.420;18.854;2023-07-31T00:48:44;100956.87;;;18.66;68.30
55044;BME280;54902;50.420;18.854;2023-07-31T00:49:15;100957.93;;;18.65;68.26
55044;BME280;54902;50.420;18.854;2023-07-31T00:49:46;100964.49;;;18.64;68.34
55044;BME280;54902;50.420;18.854;2023-07-31T00:50:18;100959.99;;;18.63;68.27
55044;BME280;54902;50.420;18.854;2023-07-31T00:50:50;100953.78;;;18.61;68.32
55044;BME280;54902;50.420;18.854;2023-07-31T00:51:21;100962.09;;;18.61;68.50
55044;BME280;54902;50.420;18.854;2023-07-31T00:51:53;100959.33;;;18.61;68.61
55044;BME280;54902;50.420;18.854;2023-07-31T00:52:24;100959.33;;;18.61;68.68
55044;BME280;54902;50.420;18.854;2023-07-31T00:52:55;100963.13;;;18.60;68.79
55044;BME280;54902;50.420;18.854;2023-07-31T00:53:26;100964.16;;;18.59;68.83
55044;BME280;54902;50.420;18.854;2023-07-31T00:53:58;100959.65;;;18.58;68.81
55044;BME280;54902;50.420;18.854;2023-07-31T00:54:29;100957.95;;;18.57;68.77
55044;BME280;54902;50.420;18.854;2023-07-31T00:55:00;100957.95;;;18.57;68.83
55044;BME280;54902;50.420;18.854;2023-07-31T00:55:31;100960.01;;;18.55;68.92
55044;BME280;54902;50.420;18.854;2023-07-31T00:56:03;100961.04;;;18.54;68.84
55044;BME280;54902;50.420;18.854;2023-07-31T00:56:35;100964.87;;;18.53;68.86
55044;BME280;54902;50.420;18.854;2023-07-31T00:57:06;100959.48;;;18.52;68.82
55044;BME280;54902;50.420;18.854;2023-07-31T00:57:41;100956.90;;;18.50;68.93
55044;BME280;54902;50.420;18.854;2023-07-31T00:58:12;100951.36;;;18.50;68.89
55044;BME280;54902;50.420;18.854;2023-07-31T00:58:43;100957.93;;;18.49;69.05
55044;BME280;54902;50.420;18.854;2023-07-31T00:59:14;100958.11;;;18.48;68.98
55044;BME280;54902;50.420;18.854;2023-07-31T00:59:45;100952.57;;;18.48;69.09
55044;BME280;54902;50.420;18.854;2023-07-31T01:00:17;100951.72;;;18.47;69.49
55044;BME280;54902;50.420;18.854;2023-07-31T01:00:48;100961.05;;;18.46;69.27
55044;BME280;54902;50.420;18.854;2023-07-31T01:01:20;100953.78;;;18.45;69.17
55044;BME280;54902;50.420;18.854;2023-07-31T01:01:52;100957.60;;;18.44;69.09
55044;BME280;54902;50.420;18.854;2023-07-31T01:02:23;100958.63;;;18.43;69.14
55044;BME280;54902;50.420;18.854;2023-07-31T01:02:54;100965.20;;;18.42;69.21
55044;BME280;54902;50.420;18.854;2023-07-31T01:03:25;100963.47;;;18.41;69.45
55044;BME280;54902;50.420;18.854;2023-07-31T01:03:56;100972.84;;;18.40;69.40
55044;BME280;54902;50.420;18.854;2023-07-31T01:04:28;100978.37;;;18.40;69.47
55044;BME280;54902;50.420;18.854;2023-07-31T01:04:59;100984.94;;;18.39;69.45
55044;BME280;54902;50.420;18.854;2023-07-31T01:05:44;100974.05;;;18.38;69.46
55044;BME280;54902;50.420;18.854;2023-07-31T01:06:24;100982.52;;;18.36;69.36
55044;BME280;54902;50.420;18.854;2023-07-31T01:07:49;100979.05;;;18.34;69.53
55044;BME280;54902;50.420;18.854;2023-07-31T01:08:32;100981.15;;;18.32;69.60
55044;BME280;54902;50.420;18.854;2023-07-31T01:10:02;100972.13;;;18.30;69.68
55044;BME280;54902;50.420;18.854;2023-07-31T01:10:43;100974.23;;;18.28;69.67
55044;BME280;54902;50.420;18.854;2023-07-31T01:12:01;100975.43;;;18.26;69.69
55044;BME280;54902;50.420;18.854;2023-07-31T01:12:34;100975.57;;;18.24;69.72
55044;BME280;54902;50.420;18.854;2023-07-31T01:13:06;100972.80;;;18.24;69.66
55044;BME280;54902;50.420;18.854;2023-07-31T01:13:37;100983.02;;;18.24;69.59
55044;BME280;54902;50.420;18.854;2023-07-31T01:14:08;100974.05;;;18.22;69.56
55044;BME280;54902;50.420;18.854;2023-07-31T01:14:39;100977.84;;;18.21;69.57
55044;BME280;54902;50.420;18.854;2023-07-31T01:15:09;100976.96;;;18.20;69.62
55044;BME280;54902;50.420;18.854;2023-07-31T01:15:47;100971.77;;;18.17;69.58
55044;BME280;54902;50.420;18.854;2023-07-31T01:16:18;100976.27;;;18.18;69.66
55044;BME280;54902;50.420;18.854;2023-07-31T01:16:49;100974.68;;;18.16;69.64
55044;BME280;54902;50.420;18.854;2023-07-31T01:17:20;100968.30;;;18.15;69.64
55044;BME280;54902;50.420;18.854;2023-07-31T01:17:51;100975.71;;;18.15;69.69
55044;BME280;54902;50.420;18.854;2023-07-31T01:18:22;100978.48;;;18.15;69.67
55044;BME280;54902;50.420;18.854;2023-07-31T01:18:52;100984.19;;;18.13;69.72
55044;BME280;54902;50.420;18.854;2023-07-31T01:19:25;100982.45;;;18.12;69.68
55044;BME280;54902;50.420;18.854;2023-07-31T01:20:02;100983.52;;;18.11;69.75
55044;BME280;54902;50.420;18.854;2023-07-31T01:20:36;100990.75;;;18.12;69.86
55044;BME280;54902;50.420;18.854;2023-07-31T01:22:52;100982.98;;;18.08;69.89
55044;BME280;54902;50.420;18.854;2023-07-31T01:24:17;100991.45;;;18.07;69.90
55044;BME280;54902;50.420;18.854;2023-07-31T01:26:19;100990.92;;;18.03;69.73
55044;BME280;54902;50.420;18.854;2023-07-31T01:26:58;100988.32;;;18.02;69.80
55044;BME280;54902;50.420;18.854;2023-07-31T01:27:48;100989.36;;;18.01;69.93
55044;BME280;54902;50.420;18.854;2023-07-31T01:28:28;100979.32;;;18.00;69.88
55044;BME280;54902;50.420;18.854;2023-07-31T01:29:08;100990.38;;;18.00;69.87
55044;BME280;54902;50.420;18.854;2023-07-31T01:29:47;100982.26;;;17.98;69.80
55044;BME280;54902;50.420;18.854;2023-07-31T01:30:25;100986.09;;;17.97;69.81
55044;BME280;54902;50.420;18.854;2023-07-31T01:30:58;100987.97;;;17.97;69.78
55044;BME280;54902;50.420;18.854;2023-07-31T01:31:31;100981.76;;;17.95;69.79
55044;BME280;54902;50.420;18.854;2023-07-31T01:32:04;100978.99;;;17.95;69.80
55044;BME280;54902;50.420;18.854;2023-07-31T01:32:40;100983.63;;;17.94;69.79
55044;BME280;54902;50.420;18.854;2023-07-31T01:33:15;100988.32;;;17.94;69.76
55044;BME280;54902;50.420;18.854;2023-07-31T01:33:46;100982.08;;;17.92;69.79
55044;BME280;54902;50.420;18.854;2023-07-31T01:34:20;100982.08;;;17.92;69.83
55044;BME280;54902;50.420;18.854;2023-07-31T01:34:52;100985.91;;;17.91;69.81
55044;BME280;54902;50.420;18.854;2023-07-31T01:35:24;100978.63;;;17.90;69.64
55044;BME280;54902;50.420;18.854;2023-07-31T01:35:56;100983.27;;;17.89;69.74
55044;BME280;54902;50.420;18.854;2023-07-31T01:36:28;100983.27;;;17.89;69.74
55044;BME280;54902;50.420;18.854;2023-07-31T01:37:00;100985.20;;;17.89;69.73
55044;BME280;54902;50.420;18.854;2023-07-31T01:37:31;100987.95;;;17.89;69.71
55044;BME280;54902;50.420;18.854;2023-07-31T01:38:02;100979.84;;;17.87;69.72
55044;BME280;54902;50.420;18.854;2023-07-31T01:38:34;100985.37;;;17.87;69.72
55044;BME280;54902;50.420;18.854;2023-07-31T01:39:05;100987.27;;;17.87;69.73
55044;BME280;54902;50.420;18.854;2023-07-31T01:39:36;100977.24;;;17.86;69.73
55044;BME280;54902;50.420;18.854;2023-07-31T01:40:08;100985.54;;;17.86;69.82
55044;BME280;54902;50.420;18.854;2023-07-31T01:40:41;100981.88;;;17.85;69.81
55044;BME280;54902;50.420;18.854;2023-07-31T01:41:12;100988.48;;;17.84;69.77
55044;BME280;54902;50.420;18.854;2023-07-31T01:41:44;100987.59;;;17.84;69.73
55044;BME280;54902;50.420;18.854;2023-07-31T01:42:15;100987.59;;;17.84;69.75
55044;BME280;54902;50.420;18.854;2023-07-31T01:42:46;100987.77;;;17.82;69.72
55044;BME280;54902;50.420;18.854;2023-07-31T01:43:16;100989.50;;;17.83;69.83
55044;BME280;54902;50.420;18.854;2023-07-31T01:43:48;100986.91;;;17.82;69.84
55044;BME280;54902;50.420;18.854;2023-07-31T01:44:19;100993.29;;;17.82;69.92
55044;BME280;54902;50.420;18.854;2023-07-31T01:44:50;100989.68;;;17.82;69.95
55044;BME280;54902;50.420;18.854;2023-07-31T01:45:21;100994.32;;;17.81;69.91
55044;BME280;54902;50.420;18.854;2023-07-31T01:45:52;100989.86;;;17.80;69.90
55044;BME280;54902;50.420;18.854;2023-07-31T01:46:23;100996.23;;;17.81;69.90
55044;BME280;54902;50.420;18.854;2023-07-31T01:46:54;101000.91;;;17.80;69.91
55044;BME280;54902;50.420;18.854;2023-07-31T01:47:25;100994.49;;;17.80;69.90
55044;BME280;54902;50.420;18.854;2023-07-31T01:47:55;100991.91;;;17.78;69.87
55044;BME280;54902;50.420;18.854;2023-07-31T01:48:26;100996.58;;;17.78;69.91
55044;BME280;54902;50.420;18.854;2023-07-31T01:48:57;100983.24;;;17.73;69.96
55044;BME280;54902;50.420;18.854;2023-07-31T01:49:28;100992.93;;;17.77;69.86
55044;BME280;54902;50.420;18.854;2023-07-31T01:49:59;100998.45;;;17.77;69.96
55044;BME280;54902;50.420;18.854;2023-07-31T01:50:30;101003.14;;;17.77;69.97
55044;BME280;54902;50.420;18.854;2023-07-31T01:51:01;100990.34;;;17.76;69.94
55044;BME280;54902;50.420;18.854;2023-07-31T01:51:33;100993.98;;;17.76;70.02
55044;BME280;54902;50.420;18.854;2023-07-31T01:52:05;100993.98;;;17.76;70.02
55044;BME280;54902;50.420;18.854;2023-07-31T01:52:36;100996.05;;;17.74;69.99
55044;BME280;54902;50.420;18.854;2023-07-31T01:53:07;101002.42;;;17.75;69.99
55044;BME280;54902;50.420;18.854;2023-07-31T01:53:39;100991.37;;;17.75;70.01
55044;BME280;54902;50.420;18.854;2023-07-31T01:54:10;100994.30;;;17.73;69.98
55044;BME280;54902;50.420;18.854;2023-07-31T01:54:41;101001.74;;;17.73;69.98
55044;BME280;54902;50.420;18.854;2023-07-31T01:55:12;101000.71;;;17.74;69.97
55044;BME280;54902;50.420;18.854;2023-07-31T01:55:43;100997.07;;;17.73;70.00
55044;BME280;54902;50.420;18.854;2023-07-31T01:56:14;100999.83;;;17.73;70.03
55044;BME280;54902;50.420;18.854;2023-07-31T01:56:45;101002.77;;;17.72;70.04
55044;BME280;54902;50.420;18.854;2023-07-31T01:57:16;101001.91;;;17.71;69.99
55044;BME280;54902;50.420;18.854;2023-07-31T01:57:47;101001.03;;;17.71;69.98
55044;BME280;54902;50.420;18.854;2023-07-31T01:58:19;100995.50;;;17.71;69.96
55044;BME280;54902;50.420;18.854;2023-07-31T01:58:50;100995.50;;;17.71;69.96
55044;BME280;54902;50.420;18.854;2023-07-31T01:59:21;100999.33;;;17.70;69.96
55044;BME280;54902;50.420;18.854;2023-07-31T01:59:52;101002.09;;;17.70;69.94
55044;BME280;54902;50.420;18.854;2023-07-31T02:00:24;100999.33;;;17.70;69.82
55044;BME280;54902;50.420;18.854;2023-07-31T02:00:54;101000.35;;;17.69;69.97
55044;BME280;54902;50.420;18.854;2023-07-31T02:01:25;100993.97;;;17.68;69.94
55044;BME280;54902;50.420;18.854;2023-07-31T02:01:56;100995.00;;;17.67;70.00
55044;BME280;54902;50.420;18.854;2023-07-31T02:02:27;101001.38;;;17.68;70.01
55044;BME280;54902;50.420;18.854;2023-07-31T02:02:59;100996.88;;;17.67;70.07
55044;BME280;54902;50.420;18.854;2023-07-31T02:03:30;100999.63;;;17.67;70.04
55044;BME280;54902;50.420;18.854;2023-07-31T02:04:01;100999.63;;;17.67;70.07
55044;BME280;54902;50.420;18.854;2023-07-31T02:04:32;101004.31;;;17.66;70.03
55044;BME280;54902;50.420;18.854;2023-07-31T02:05:05;101008.99;;;17.66;70.03
55044;BME280;54902;50.420;18.854;2023-07-31T02:05:36;101005.34;;;17.65;70.03
55044;BME280;54902;50.420;18.854;2023-07-31T02:06:07;100999.81;;;17.65;70.00
55044;BME280;54902;50.420;18.854;2023-07-31T02:06:39;101001.72;;;17.65;70.00
55044;BME280;54902;50.420;18.854;2023-07-31T02:07:10;101000.88;;;17.64;70.02
55044;BME280;54902;50.420;18.854;2023-07-31T02:07:40;100997.23;;;17.64;70.02
55044;BME280;54902;50.420;18.854;2023-07-31T02:08:11;100997.23;;;17.64;70.06
55044;BME280;54902;50.420;18.854;2023-07-31T02:08:42;101001.01;;;17.63;70.12
55044;BME280;54902;50.420;18.854;2023-07-31T02:09:13;100992.71;;;17.63;70.05
55044;BME280;54902;50.420;18.854;2023-07-31T02:09:44;100997.39;;;17.62;70.06
55044;BME280;54902;50.420;18.854;2023-07-31T02:10:17;100987.19;;;17.63;70.07
55044;BME280;54902;50.420;18.854;2023-07-31T02:10:48;101001.01;;;17.63;70.07
55044;BME280;54902;50.420;18.854;2023-07-31T02:11:18;100991.02;;;17.62;70.15
55044;BME280;54902;50.420;18.854;2023-07-31T02:11:49;100995.66;;;17.61;70.11
55044;BME280;54902;50.420;18.854;2023-07-31T02:12:20;100998.59;;;17.60;70.12
55044;BME280;54902;50.420;18.854;2023-07-31T02:12:51;100993.91;;;17.60;70.13
55044;BME280;54902;50.420;18.854;2023-07-31T02:13:22;100993.91;;;17.60;70.09
55044;BME280;54902;50.420;18.854;2023-07-31T02:13:53;100994.97;;;17.59;70.11
55044;BME280;54902;50.420;18.854;2023-07-31T02:14:24;100993.06;;;17.60;70.09
55044;BME280;54902;50.420;18.854;2023-07-31T02:14:55;101002.38;;;17.59;70.13
55044;BME280;54902;50.420;18.854;2023-07-31T02:15:26;101004.12;;;17.60;70.15
55044;BME280;54902;50.420;18.854;2023-07-31T02:15:57;100996.85;;;17.59;70.16
55044;BME280;54902;50.420;18.854;2023-07-31T02:16:28;101002.38;;;17.59;70.18
55044;BME280;54902;50.420;18.854;2023-07-31T02:16:59;101007.91;;;17.59;70.29
55044;BME280;54902;50.420;18.854;2023-07-31T02:17:30;100995.15;;;17.58;70.31
55044;BME280;54902;50.420;18.854;2023-07-31T02:18:01;100995.15;;;17.58;70.31
55044;BME280;54902;50.420;18.854;2023-07-31T02:18:32;100995.15;;;17.58;70.42
55044;BME280;54902;50.420;18.854;2023-07-31T02:19:03;100995.15;;;17.58;70.49
55044;BME280;54902;50.420;18.854;2023-07-31T02:19:33;100995.15;;;17.58;70.45
55044;BME280;54902;50.420;18.854;2023-07-31T02:20:05;100998.94;;;17.57;70.43
55044;BME280;54902;50.420;18.854;2023-07-31T02:20:36;100992.52;;;17.56;70.43
55044;BME280;54902;50.420;18.854;2023-07-31T02:21:07;100993.41;;;17.57;70.56
55044;BME280;54902;50.420;18.854;2023-07-31T02:21:38;100998.05;;;17.56;70.46
55044;BME280;54902;50.420;18.854;2023-07-31T02:22:09;101002.72;;;17.56;70.52
55044;BME280;54902;50.420;18.854;2023-07-31T02:22:40;100997.20;;;17.56;70.60
55044;BME280;54902;50.420;18.854;2023-07-31T02:23:12;101007.39;;;17.55;70.66
55044;BME280;54902;50.420;18.854;2023-07-31T02:23:43;101003.75;;;17.55;70.71
55044;BME280;54902;50.420;18.854;2023-07-31T02:24:13;101007.39;;;17.55;70.64
55044;BME280;54902;50.420;18.854;2023-07-31T02:24:44;101013.95;;;17.54;70.72
55044;BME280;54902;50.420;18.854;2023-07-31T02:25:15;101003.75;;;17.55;70.72
55044;BME280;54902;50.420;18.854;2023-07-31T02:25:46;101004.80;;;17.54;70.71
55044;BME280;54902;50.420;18.854;2023-07-31T02:26:17;100998.02;;;17.48;70.72
55044;BME280;54902;50.420;18.854;2023-07-31T02:26:48;101002.19;;;17.52;70.71
55044;BME280;54902;50.420;18.854;2023-07-31T02:27:19;101009.62;;;17.52;70.67
55044;BME280;54902;50.420;18.854;2023-07-31T02:27:57;101012.38;;;17.52;70.64
55044;BME280;54902;50.420;18.854;2023-07-31T02:28:29;101005.12;;;17.51;70.72
55044;BME280;54902;50.420;18.854;2023-07-31T02:29:00;101014.43;;;17.50;70.77
55044;BME280;54902;50.420;18.854;2023-07-31T02:29:31;101004.27;;;17.50;70.87
55044;BME280;54902;50.420;18.854;2023-07-31T02:30:02;101007.88;;;17.51;70.91
55044;BME280;54902;50.420;18.854;2023-07-31T02:30:33;101008.05;;;17.49;70.84
55044;BME280;54902;50.420;18.854;2023-07-31T02:31:04;101008.91;;;17.50;71.05
55044;BME280;54902;50.420;18.854;2023-07-31T02:31:34;101013.58;;;17.49;71.27
55044;BME280;54902;50.420;18.854;2023-07-31T02:32:06;101017.37;;;17.48;71.26
55044;BME280;54902;50.420;18.854;2023-07-31T02:32:37;101013.75;;;17.48;71.35
55044;BME280;54902;50.420;18.854;2023-07-31T02:33:08;101005.45;;;17.48;71.31
55044;BME280;54902;50.420;18.854;2023-07-31T02:33:38;101016.51;;;17.48;71.26
55044;BME280;54902;50.420;18.854;2023-07-31T02:34:09;101019.27;;;17.48;71.30
55044;BME280;54902;50.420;18.854;2023-07-31T02:34:40;101014.77;;;17.47;71.49
55044;BME280;54902;50.420;18.854;2023-07-31T02:35:11;101012.01;;;17.47;71.59
55044;BME280;54902;50.420;18.854;2023-07-31T02:35:46;101021.32;;;17.46;71.54
55044;BME280;54902;50.420;18.854;2023-07-31T02:36:16;101022.20;;;17.47;71.53
55044;BME280;54902;50.420;18.854;2023-07-31T02:36:47;101018.56;;;17.46;71.58
55044;BME280;54902;50.420;18.854;2023-07-31T02:37:18;101016.84;;;17.45;71.56
55044;BME280;54902;50.420;18.854;2023-07-31T02:37:49;101025.14;;;17.45;71.50
55044;BME280;54902;50.420;18.854;2023-07-31T02:38:20;101020.64;;;17.44;71.46
55044;BME280;54902;50.420;18.854;2023-07-31T02:38:51;101020.64;;;17.44;71.52
55044;BME280;54902;50.420;18.854;2023-07-31T02:39:22;101026.16;;;17.44;71.65
55044;BME280;54902;50.420;18.854;2023-07-31T02:39:53;101027.19;;;17.43;71.49
55044;BME280;54902;50.420;18.854;2023-07-31T02:40:24;101029.95;;;17.43;71.57
55044;BME280;54902;50.420;18.854;2023-07-31T02:40:55;101028.20;;;17.42;71.62
55044;BME280;54902;50.420;18.854;2023-07-31T02:41:26;101033.74;;;17.42;71.60
55044;BME280;54902;50.420;18.854;2023-07-31T02:41:57;101026.50;;;17.41;71.57
55044;BME280;54902;50.420;18.854;2023-07-31T02:42:28;101026.50;;;17.41;71.63
55044;BME280;54902;50.420;18.854;2023-07-31T02:42:59;101025.11;;;17.37;71.53
55044;BME280;54902;50.420;18.854;2023-07-31T02:43:30;101027.52;;;17.40;71.74
55044;BME280;54902;50.420;18.854;2023-07-31T02:44:00;101020.98;;;17.41;71.83
55044;BME280;54902;50.420;18.854;2023-07-31T02:44:31;101023.03;;;17.39;71.79
55044;BME280;54902;50.420;18.854;2023-07-31T02:45:02;101031.32;;;17.39;71.80
55044;BME280;54902;50.420;18.854;2023-07-31T02:45:33;101029.45;;;17.40;71.74
55044;BME280;54902;50.420;18.854;2023-07-31T02:46:05;101024.93;;;17.39;71.80
55044;BME280;54902;50.420;18.854;2023-07-31T02:46:36;101027.70;;;17.39;71.86
55044;BME280;54902;50.420;18.854;2023-07-31T02:47:06;101025.96;;;17.38;71.83
55044;BME280;54902;50.420;18.854;2023-07-31T02:47:37;101026.82;;;17.38;71.82
55044;BME280;54902;50.420;18.854;2023-07-31T02:48:09;101025.11;;;17.37;71.81
55044;BME280;54902;50.420;18.854;2023-07-31T02:48:40;101027.87;;;17.37;72.05
55044;BME280;54902;50.420;18.854;2023-07-31T02:49:10;101027.87;;;17.37;71.98
55044;BME280;54902;50.420;18.854;2023-07-31T02:49:41;101030.63;;;17.37;71.95